sensor_id;sensor_type;location;lat;lon;timestamp;pressure;altitude;pressure_sealevel;temperature;humidity
17230;BME280;8731;50.364;8.958;2023-08-24T00:03:23;100284.94;;;19.15;80.56
17230;BME280;8731;50.364;8.958;2023-08-24T00:07:45;100287.94;;;19.21;80.20
17230;BME280;8731;50.364;8.958;2023-08-24T00:12:08;100288.72;;;19.20;80.50
17230;BME280;8731;50.364;8.958;2023-08-24T00:16:32;100293.41;;;18.84;82.61
17230;BME280;8731;50.364;8.958;2023-08-24T00:20:54;100282.22;;;18.84;83.16
17230;BME280;8731;50.364;8.958;2023-08-24T00:25:17;100277.94;;;18.84;81.89
17230;BME280;8731;50.364;8.958;2023-08-24T00:29:39;100283.38;;;18.89;80.96
17230;BME280;8731;50.364;8.958;2023-08-24T00:34:03;100281.47;;;18.72;81.20
17230;BME280;8731;50.364;8.958;2023-08-24T00:38:25;100271.56;;;18.51;83.22
17230;BME280;8731;50.364;8.958;2023-08-24T00:42:47;100275.22;;;18.41;83.68
17230;BME280;8731;50.364;8.958;2023-08-24T00:47:10;100274.13;;;18.64;80.52
17230;BME280;8731;50.364;8.958;2023-08-24T00:51:34;100283.97;;;18.70;80.92
17230;BME280;8731;50.364;8.958;2023-08-24T00:55:56;100273.81;;;18.60;81.93
17230;BME280;8731;50.364;8.958;2023-08-24T01:00:20;100280.34;;;18.27;84.71
17230;BME280;8731;50.364;8.958;2023-08-24T01:04:43;100286.34;;;18.40;83.32
17230;BME280;8731;50.364;8.958;2023-08-24T01:09:09;100293.03;;;18.10;86.03
17230;BME280;8731;50.364;8.958;2023-08-24T01:13:38;100291.66;;;18.02;86.58
17230;BME280;8731;50.364;8.958;2023-08-24T01:18:13;100288.34;;;18.18;84.32
17230;BME280;8731;50.364;8.958;2023-08-24T01:22:45;100299.44;;;18.17;84.02
17230;BME280;8731;50.364;8.958;2023-08-24T01:27:16;100301.25;;;18.18;83.67
17230;BME280;8731;50.364;8.958;2023-08-24T01:31:40;100304.59;;;18.17;84.33
17230;BME280;8731;50.364;8.958;2023-08-24T01:36:06;100308.69;;;18.14;85.04
17230;BME280;8731;50.364;8.958;2023-08-24T01:40:35;100315.13;;;18.07;85.66
17230;BME280;8731;50.364;8.958;2023-08-24T01:45:08;100314.91;;;18.17;83.91
17230;BME280;8731;50.364;8.958;2023-08-24T01:49:33;100316.72;;;18.05;85.12
17230;BME280;8731;50.364;8.958;2023-08-24T01:53:56;100316.78;;;17.93;85.90
17230;BME280;8731;50.364;8.958;2023-08-24T01:58:20;100309.75;;;17.91;86.32
17230;BME280;8731;50.364;8.958;2023-08-24T02:02:44;100300.53;;;17.94;84.92
17230;BME280;8731;50.364;8.958;2023-08-24T02:07:06;100298.47;;;17.89;85.14
17230;BME280;8731;50.364;8.958;2023-08-24T02:11:29;100287.84;;;17.71;86.38
17230;BME280;8731;50.364;8.958;2023-08-24T02:16:01;100276.59;;;17.57;86.84
17230;BME280;8731;50.364;8.958;2023-08-24T02:20:25;100293.97;;;17.73;85.65
17230;BME280;8731;50.364;8.958;2023-08-24T02:24:47;100292.91;;;17.83;83.51
17230;BME280;8731;50.364;8.958;2023-08-24T02:29:10;100280.88;;;17.57;87.07
17230;BME280;8731;50.364;8.958;2023-08-24T02:33:33;100285.91;;;17.55;86.48
17230;BME280;8731;50.364;8.958;2023-08-24T02:37:57;100290.06;;;17.53;86.67
17230;BME280;8731;50.364;8.958;2023-08-24T02:42:20;100285.97;;;17.30;88.81
17230;BME280;8731;50.364;8.958;2023-08-24T02:46:44;100285.59;;;17.50;87.15
17230;BME280;8731;50.364;8.958;2023-08-24T02:51:08;100273.59;;;17.38;87.39
17230;BME280;8731;50.364;8.958;2023-08-24T02:55:33;100271.00;;;17.38;87.05
17230;BME280;8731;50.364;8.958;2023-08-24T02:59:55;100265.63;;;17.22;87.60
17230;BME280;8731;50.364;8.958;2023-08-24T03:04:18;100268.28;;;17.23;87.95
17230;BME280;8731;50.364;8.958;2023-08-24T03:08:40;100261.44;;;17.10;88.74
17230;BME280;8731;50.364;8.958;2023-08-24T03:13:04;100262.63;;;17.15;87.89
17230;BME280;8731;50.364;8.958;2023-08-24T03:17:26;100250.75;;;17.04;88.36
17230;BME280;8731;50.364;8.958;2023-08-24T03:21:48;100255.88;;;17.04;88.43
17230;BME280;8731;50.364;8.958;2023-08-24T03:26:11;100250.38;;;16.86;90.64
17230;BME280;8731;50.364;8.958;2023-08-24T03:30:36;100256.44;;;16.75;91.69
17230;BME280;8731;50.364;8.958;2023-08-24T03:35:01;100269.00;;;16.96;86.61
17230;BME280;8731;50.364;8.958;2023-08-24T03:39:24;100264.69;;;16.83;89.90
17230;BME280;8731;50.364;8.958;2023-08-24T03:43:46;100264.03;;;16.74;92.00
17230;BME280;8731;50.364;8.958;2023-08-24T03:48:10;100243.50;;;16.62;93.48
17230;BME280;8731;50.364;8.958;2023-08-24T03:52:32;100234.09;;;16.63;93.86
17230;BME280;8731;50.364;8.958;2023-08-24T03:56:55;100230.47;;;16.84;91.07
17230;BME280;8731;50.364;8.958;2023-08-24T04:01:17;100229.22;;;16.91;90.93
17230;BME280;8731;50.364;8.958;2023-08-24T04:05:41;100225.38;;;16.97;90.40
17230;BME280;8731;50.364;8.958;2023-08-24T04:10:05;100218.53;;;16.98;91.95
17230;BME280;8731;50.364;8.958;2023-08-24T04:14:28;100212.13;;;16.79;94.31
17230;BME280;8731;50.364;8.958;2023-08-24T04:18:51;100206.53;;;16.85;94.05
17230;BME280;8731;50.364;8.958;2023-08-24T04:23:15;100207.16;;;16.94;92.10
17230;BME280;8731;50.364;8.958;2023-08-24T04:27:38;100207.94;;;16.93;92.80
17230;BME280;8731;50.364;8.958;2023-08-24T04:32:00;100199.16;;;17.03;91.73
17230;BME280;8731;50.364;8.958;2023-08-24T04:36:22;100202.59;;;16.90;93.92
17230;BME280;8731;50.364;8.958;2023-08-24T04:40:49;100190.84;;;16.94;94.50
17230;BME280;8731;50.364;8.958;2023-08-24T04:45:12;100184.19;;;16.84;95.47
17230;BME280;8731;50.364;8.958;2023-08-24T04:49:35;100169.47;;;16.95;93.92
17230;BME280;8731;50.364;8.958;2023-08-24T04:53:58;100150.06;;;16.62;99.24
17230;BME280;8731;50.364;8.958;2023-08-24T04:58:21;100140.56;;;16.85;97.90
17230;BME280;8731;50.364;8.958;2023-08-24T05:02:44;100139.94;;;17.14;92.50
17230;BME280;8731;50.364;8.958;2023-08-24T05:07:07;100150.81;;;17.24;92.14
17230;BME280;8731;50.364;8.958;2023-08-24T05:11:29;100185.88;;;17.35;91.25
17230;BME280;8731;50.364;8.958;2023-08-24T05:15:53;100214.50;;;17.39;93.18
17230;BME280;8731;50.364;8.958;2023-08-24T05:20:15;100244.28;;;17.49;93.11
17230;BME280;8731;50.364;8.958;2023-08-24T05:24:38;100260.97;;;17.54;92.48
17230;BME280;8731;50.364;8.958;2023-08-24T05:29:01;100279.03;;;17.67;93.05
17230;BME280;8731;50.364;8.958;2023-08-24T05:33:25;100298.69;;;17.54;90.18
17230;BME280;8731;50.364;8.958;2023-08-24T05:37:51;100315.13;;;17.56;94.84
17230;BME280;8731;50.364;8.958;2023-08-24T05:42:13;100335.09;;;17.71;93.88
17230;BME280;8731;50.364;8.958;2023-08-24T05:46:35;100342.81;;;17.71;95.15
17230;BME280;8731;50.364;8.958;2023-08-24T05:50:59;100339.97;;;17.93;91.41
17230;BME280;8731;50.364;8.958;2023-08-24T05:55:21;100334.75;;;18.05;93.56
17230;BME280;8731;50.364;8.958;2023-08-24T05:59:44;100309.69;;;18.29;94.13
17230;BME280;8731;50.364;8.958;2023-08-24T06:04:06;100313.09;;;18.69;89.83
17230;BME280;8731;50.364;8.958;2023-08-24T06:08:30;100324.38;;;18.84;90.34
17230;BME280;8731;50.364;8.958;2023-08-24T06:13:01;100322.31;;;19.07;88.43
17230;BME280;8731;50.364;8.958;2023-08-24T06:17:24;100327.09;;;19.56;86.07
17230;BME280;8731;50.364;8.958;2023-08-24T06:21:46;100339.59;;;19.93;84.85
17230;BME280;8731;50.364;8.958;2023-08-24T06:26:10;100341.91;;;19.74;87.56
17230;BME280;8731;50.364;8.958;2023-08-24T06:30:32;100337.34;;;19.84;86.72
17230;BME280;8731;50.364;8.958;2023-08-24T06:34:59;100339.56;;;19.63;89.67
17230;BME280;8731;50.364;8.958;2023-08-24T06:39:21;100325.31;;;19.85;87.89
17230;BME280;8731;50.364;8.958;2023-08-24T06:43:46;100309.81;;;19.85;87.34
17230;BME280;8731;50.364;8.958;2023-08-24T06:48:08;100302.84;;;19.84;87.28
17230;BME280;8731;50.364;8.958;2023-08-24T06:52:31;100292.97;;;19.77;87.15
17230;BME280;8731;50.364;8.958;2023-08-24T06:56:53;100284.88;;;19.71;88.64
17230;BME280;8731;50.364;8.958;2023-08-24T07:01:17;100289.94;;;19.84;86.75
17230;BME280;8731;50.364;8.958;2023-08-24T07:05:39;100257.94;;;19.52;90.77
17230;BME280;8731;50.364;8.958;2023-08-24T07:10:01;100243.63;;;19.57;90.77
17230;BME280;8731;50.364;8.958;2023-08-24T07:14:24;100225.41;;;19.85;88.43
17230;BME280;8731;50.364;8.958;2023-08-24T07:18:48;100196.66;;;19.50;92.59
17230;BME280;8731;50.364;8.958;2023-08-24T07:23:10;100155.16;;;19.61;89.98
17230;BME280;8731;50.364;8.958;2023-08-24T07:27:33;100136.22;;;19.31;92.92
17230;BME280;8731;50.364;8.958;2023-08-24T07:31:55;100162.09;;;19.77;89.19
17230;BME280;8731;50.364;8.958;2023-08-24T07:36:19;100155.84;;;19.88;89.60
17230;BME280;8731;50.364;8.958;2023-08-24T07:40:43;100169.59;;;20.04;88.34
17230;BME280;8731;50.364;8.958;2023-08-24T07:45:06;100172.59;;;20.42;86.52
17230;BME280;8731;50.364;8.958;2023-08-24T07:49:30;100146.03;;;21.29;83.29
17230;BME280;8731;50.364;8.958;2023-08-24T07:53:53;100145.84;;;21.78;83.21
17230;BME280;8731;50.364;8.958;2023-08-24T07:58:16;100141.22;;;22.08;80.72
17230;BME280;8731;50.364;8.958;2023-08-24T08:02:38;100140.66;;;21.97;79.54
17230;BME280;8731;50.364;8.958;2023-08-24T08:07:00;100136.31;;;22.14;78.93
17230;BME280;8731;50.364;8.958;2023-08-24T08:11:24;100139.50;;;22.47;78.22
17230;BME280;8731;50.364;8.958;2023-08-24T08:15:46;100137.59;;;22.62;78.98
17230;BME280;8731;50.364;8.958;2023-08-24T08:20:09;100130.63;;;23.00;76.99
17230;BME280;8731;50.364;8.958;2023-08-24T08:24:32;100119.97;;;23.36;76.21
17230;BME280;8731;50.364;8.958;2023-08-24T08:28:56;100108.31;;;23.47;76.50
17230;BME280;8731;50.364;8.958;2023-08-24T08:33:18;100082.81;;;24.04;76.11
17230;BME280;8731;50.364;8.958;2023-08-24T08:37:42;100049.53;;;24.19;74.56
17230;BME280;8731;50.364;8.958;2023-08-24T08:42:04;100055.16;;;25.04;70.66
17230;BME280;8731;50.364;8.958;2023-08-24T08:46:33;100086.44;;;25.58;69.32
17230;BME280;8731;50.364;8.958;2023-08-24T08:50:55;100090.84;;;26.18;66.78
17230;BME280;8731;50.364;8.958;2023-08-24T08:55:20;100077.41;;;26.99;66.53
17230;BME280;8731;50.364;8.958;2023-08-24T08:59:43;100078.28;;;27.70;64.59
17230;BME280;8731;50.364;8.958;2023-08-24T09:04:08;100072.16;;;28.52;62.75
17230;BME280;8731;50.364;8.958;2023-08-24T09:08:31;100075.09;;;29.19;61.66
17230;BME280;8731;50.364;8.958;2023-08-24T09:12:54;100074.72;;;29.50;60.82
17230;BME280;8731;50.364;8.958;2023-08-24T09:17:20;100049.66;;;29.72;55.96
17230;BME280;8731;50.364;8.958;2023-08-24T09:21:44;100037.06;;;30.10;58.93
17230;BME280;8731;50.364;8.958;2023-08-24T09:26:07;100054.03;;;30.43;55.42
17230;BME280;8731;50.364;8.958;2023-08-24T09:30:30;100053.50;;;29.99;53.65
17230;BME280;8731;50.364;8.958;2023-08-24T09:34:53;100043.97;;;30.82;55.89
17230;BME280;8731;50.364;8.958;2023-08-24T09:39:17;100028.09;;;29.98;51.16
17230;BME280;8731;50.364;8.958;2023-08-24T09:43:40;100024.53;;;29.30;51.81
17230;BME280;8731;50.364;8.958;2023-08-24T09:48:03;100006.66;;;29.61;50.91
17230;BME280;8731;50.364;8.958;2023-08-24T09:52:31;99985.47;;;30.18;51.06
17230;BME280;8731;50.364;8.958;2023-08-24T09:56:57;99978.94;;;30.66;52.49
17230;BME280;8731;50.364;8.958;2023-08-24T10:01:21;99973.81;;;30.81;51.30
17230;BME280;8731;50.364;8.958;2023-08-24T10:05:47;99963.81;;;30.42;49.36
17230;BME280;8731;50.364;8.958;2023-08-24T10:10:14;99958.38;;;31.30;49.32
17230;BME280;8731;50.364;8.958;2023-08-24T10:14:44;99948.78;;;31.40;48.63
17230;BME280;8731;50.364;8.958;2023-08-24T10:19:13;99940.09;;;31.59;49.11
17230;BME280;8731;50.364;8.958;2023-08-24T10:23:37;99948.00;;;30.38;48.85
17230;BME280;8731;50.364;8.958;2023-08-24T10:28:01;99937.00;;;30.80;49.23
17230;BME280;8731;50.364;8.958;2023-08-24T10:32:27;99925.34;;;32.07;49.00
17230;BME280;8731;50.364;8.958;2023-08-24T10:36:50;99918.38;;;32.91;49.94
17230;BME280;8731;50.364;8.958;2023-08-24T10:41:14;99913.88;;;31.82;47.70
17230;BME280;8731;50.364;8.958;2023-08-24T10:45:55;99900.69;;;31.90;46.62
17230;BME280;8731;50.364;8.958;2023-08-24T10:50:22;99900.75;;;32.64;45.61
17230;BME280;8731;50.364;8.958;2023-08-24T10:54:45;99906.88;;;33.08;46.54
17230;BME280;8731;50.364;8.958;2023-08-24T10:59:10;99908.69;;;32.63;47.69
17230;BME280;8731;50.364;8.958;2023-08-24T11:03:34;99916.31;;;31.38;46.63
17230;BME280;8731;50.364;8.958;2023-08-24T11:07:58;99915.66;;;32.01;45.32
17230;BME280;8731;50.364;8.958;2023-08-24T11:12:21;99917.19;;;31.40;46.56
17230;BME280;8731;50.364;8.958;2023-08-24T11:16:45;99913.88;;;30.42;47.23
17230;BME280;8731;50.364;8.958;2023-08-24T11:21:08;99916.41;;;31.59;46.32
17230;BME280;8731;50.364;8.958;2023-08-24T11:25:35;99904.09;;;31.51;49.00
17230;BME280;8731;50.364;8.958;2023-08-24T11:29:58;99906.84;;;31.83;47.94
17230;BME280;8731;50.364;8.958;2023-08-24T11:34:21;99892.84;;;32.03;46.86
17230;BME280;8731;50.364;8.958;2023-08-24T11:38:44;99884.88;;;31.78;46.48
17230;BME280;8731;50.364;8.958;2023-08-24T11:43:08;99887.56;;;32.14;47.64
17230;BME280;8731;50.364;8.958;2023-08-24T11:47:31;99886.69;;;31.98;45.94
17230;BME280;8731;50.364;8.958;2023-08-24T11:51:54;99874.44;;;32.51;47.70
17230;BME280;8731;50.364;8.958;2023-08-24T11:56:17;99863.84;;;31.94;46.50
17230;BME280;8731;50.364;8.958;2023-08-24T12:00:40;99839.09;;;31.31;45.88
17230;BME280;8731;50.364;8.958;2023-08-24T12:05:06;99834.00;;;32.00;48.59
17230;BME280;8731;50.364;8.958;2023-08-24T12:09:29;99837.47;;;31.88;47.93
17230;BME280;8731;50.364;8.958;2023-08-24T12:13:52;99826.66;;;31.01;46.53
17230;BME280;8731;50.364;8.958;2023-08-24T12:18:17;99815.47;;;31.66;46.96
17230;BME280;8731;50.364;8.958;2023-08-24T12:22:39;99811.09;;;31.58;47.66
17230;BME280;8731;50.364;8.958;2023-08-24T12:27:02;99815.22;;;30.93;46.88
17230;BME280;8731;50.364;8.958;2023-08-24T12:31:26;99823.94;;;30.80;44.18
17230;BME280;8731;50.364;8.958;2023-08-24T12:35:50;99819.31;;;30.50;44.29
17230;BME280;8731;50.364;8.958;2023-08-24T12:40:13;99804.88;;;31.42;44.15
17230;BME280;8731;50.364;8.958;2023-08-24T12:44:36;99806.50;;;31.06;45.21
17230;BME280;8731;50.364;8.958;2023-08-24T12:48:58;99800.56;;;31.55;44.27
17230;BME280;8731;50.364;8.958;2023-08-24T12:53:22;99801.44;;;31.51;44.64
17230;BME280;8731;50.364;8.958;2023-08-24T12:57:44;99789.00;;;31.14;43.86
17230;BME280;8731;50.364;8.958;2023-08-24T13:02:07;99785.56;;;31.23;43.58
17230;BME280;8731;50.364;8.958;2023-08-24T13:06:29;99788.13;;;31.15;44.13
17230;BME280;8731;50.364;8.958;2023-08-24T13:10:53;99798.84;;;31.77;43.84
17230;BME280;8731;50.364;8.958;2023-08-24T13:15:15;99799.63;;;31.45;43.60
17230;BME280;8731;50.364;8.958;2023-08-24T13:19:37;99797.81;;;31.20;42.54
17230;BME280;8731;50.364;8.958;2023-08-24T13:24:00;99785.63;;;31.58;43.44
17230;BME280;8731;50.364;8.958;2023-08-24T13:28:23;99792.63;;;31.45;43.55
17230;BME280;8731;50.364;8.958;2023-08-24T13:32:46;99783.66;;;30.99;43.01
17230;BME280;8731;50.364;8.958;2023-08-24T13:37:08;99770.63;;;31.19;44.23
17230;BME280;8731;50.364;8.958;2023-08-24T13:41:30;99768.91;;;31.39;42.24
17230;BME280;8731;50.364;8.958;2023-08-24T13:45:54;99775.94;;;31.39;43.67
17230;BME280;8731;50.364;8.958;2023-08-24T13:50:16;99780.38;;;31.52;45.31
17230;BME280;8731;50.364;8.958;2023-08-24T13:54:38;99801.44;;;31.70;45.30
17230;BME280;8731;50.364;8.958;2023-08-24T13:59:01;99816.34;;;31.67;45.12
17230;BME280;8731;50.364;8.958;2023-08-24T14:03:25;99809.31;;;31.51;42.68
17230;BME280;8731;50.364;8.958;2023-08-24T14:07:48;99806.75;;;31.75;45.46
17230;BME280;8731;50.364;8.958;2023-08-24T14:12:11;99790.97;;;31.78;45.19
17230;BME280;8731;50.364;8.958;2023-08-24T14:16:33;99806.69;;;31.70;45.16
17230;BME280;8731;50.364;8.958;2023-08-24T14:20:57;99808.50;;;31.81;46.13
17230;BME280;8731;50.364;8.958;2023-08-24T14:25:19;99787.44;;;31.71;46.46
17230;BME280;8731;50.364;8.958;2023-08-24T14:29:41;99765.38;;;31.22;43.45
17230;BME280;8731;50.364;8.958;2023-08-24T14:34:04;99752.16;;;31.05;44.98
17230;BME280;8731;50.364;8.958;2023-08-24T14:38:27;99702.75;;;30.36;52.53
17230;BME280;8731;50.364;8.958;2023-08-24T14:42:50;99651.81;;;30.11;55.25
17230;BME280;8731;50.364;8.958;2023-08-24T14:47:13;99553.88;;;29.01;55.82
17230;BME280;8731;50.364;8.958;2023-08-24T14:51:35;99541.09;;;29.44;54.31
17230;BME280;8731;50.364;8.958;2023-08-24T14:55:59;99594.03;;;30.12;52.17
17230;BME280;8731;50.364;8.958;2023-08-24T15:00:22;99651.81;;;30.08;52.31
17230;BME280;8731;50.364;8.958;2023-08-24T15:04:45;99726.25;;;30.11;52.32
17230;BME280;8731;50.364;8.958;2023-08-24T15:09:07;99765.69;;;30.19;52.80
17230;BME280;8731;50.364;8.958;2023-08-24T15:13:31;99797.00;;;29.96;53.27
17230;BME280;8731;50.364;8.958;2023-08-24T15:17:54;99840.53;;;29.71;53.99
17230;BME280;8731;50.364;8.958;2023-08-24T15:22:17;99835.31;;;29.77;52.50
17230;BME280;8731;50.364;8.958;2023-08-24T15:26:39;99830.19;;;29.86;51.59
17230;BME280;8731;50.364;8.958;2023-08-24T15:31:03;99811.69;;;29.76;50.88
17230;BME280;8731;50.364;8.958;2023-08-24T15:35:25;99789.06;;;29.90;51.63
17230;BME280;8731;50.364;8.958;2023-08-24T15:39:47;99761.03;;;29.84;51.94
17230;BME280;8731;50.364;8.958;2023-08-24T15:44:10;99736.84;;;29.29;51.47
17230;BME280;8731;50.364;8.958;2023-08-24T15:48:33;99706.44;;;28.71;56.18
17230;BME280;8731;50.364;8.958;2023-08-24T15:52:56;99673.09;;;28.59;57.26
17230;BME280;8731;50.364;8.958;2023-08-24T15:57:20;99644.22;;;28.55;57.54
17230;BME280;8731;50.364;8.958;2023-08-24T16:01:42;99625.50;;;28.95;56.55
17230;BME280;8731;50.364;8.958;2023-08-24T16:06:06;99615.88;;;28.94;56.07
17230;BME280;8731;50.364;8.958;2023-08-24T16:10:28;99632.66;;;29.13;56.08
17230;BME280;8731;50.364;8.958;2023-08-24T16:14:52;99627.44;;;29.15;56.75
17230;BME280;8731;50.364;8.958;2023-08-24T16:19:15;99641.44;;;29.15;56.02
17230;BME280;8731;50.364;8.958;2023-08-24T16:23:39;99666.69;;;29.07;56.42
17230;BME280;8731;50.364;8.958;2023-08-24T16:28:03;99698.97;;;29.03;55.90
17230;BME280;8731;50.364;8.958;2023-08-24T16:32:26;99732.03;;;28.89;56.43
17230;BME280;8731;50.364;8.958;2023-08-24T16:36:48;99733.63;;;28.81;56.52
17230;BME280;8731;50.364;8.958;2023-08-24T16:41:12;99701.28;;;28.77;55.46
17230;BME280;8731;50.364;8.958;2023-08-24T16:45:35;99609.19;;;27.26;62.85
17230;BME280;8731;50.364;8.958;2023-08-24T16:49:59;99631.56;;;28.20;60.84
17230;BME280;8731;50.364;8.958;2023-08-24T16:54:21;99616.69;;;28.18;60.98
17230;BME280;8731;50.364;8.958;2023-08-24T16:58:45;99614.16;;;28.24;62.31
17230;BME280;8731;50.364;8.958;2023-08-24T17:03:07;99620.31;;;28.27;63.43
17230;BME280;8731;50.364;8.958;2023-08-24T17:07:30;99617.47;;;28.13;63.90
17230;BME280;8731;50.364;8.958;2023-08-24T17:11:52;99623.50;;;28.06;63.29
17230;BME280;8731;50.364;8.958;2023-08-24T17:16:16;99621.63;;;27.96;63.29
17230;BME280;8731;50.364;8.958;2023-08-24T17:20:38;99614.72;;;28.01;62.14
17230;BME280;8731;50.364;8.958;2023-08-24T17:25:00;99609.25;;;27.86;62.36
17230;BME280;8731;50.364;8.958;2023-08-24T17:29:24;99606.59;;;27.81;61.54
17230;BME280;8731;50.364;8.958;2023-08-24T17:33:48;99617.66;;;27.64;63.09
17230;BME280;8731;50.364;8.958;2023-08-24T17:38:10;99601.97;;;27.12;65.34
17230;BME280;8731;50.364;8.958;2023-08-24T17:42:33;99601.84;;;27.05;66.32
17230;BME280;8731;50.364;8.958;2023-08-24T17:46:55;99596.31;;;27.39;64.61
17230;BME280;8731;50.364;8.958;2023-08-24T17:51:19;99620.75;;;27.41;64.38
17230;BME280;8731;50.364;8.958;2023-08-24T17:55:41;99719.97;;;27.32;64.79
17230;BME280;8731;50.364;8.958;2023-08-24T18:00:04;99832.72;;;27.04;66.26
17230;BME280;8731;50.364;8.958;2023-08-24T18:04:29;99808.03;;;26.52;67.06
17230;BME280;8731;50.364;8.958;2023-08-24T18:08:52;99784.97;;;26.73;66.89
17230;BME280;8731;50.364;8.958;2023-08-24T18:13:15;99768.88;;;26.52;67.96
17230;BME280;8731;50.364;8.958;2023-08-24T18:17:37;99764.59;;;26.19;67.45
17230;BME280;8731;50.364;8.958;2023-08-24T18:22:00;99688.59;;;25.69;72.92
17230;BME280;8731;50.364;8.958;2023-08-24T18:26:24;99622.28;;;25.97;71.20
17230;BME280;8731;50.364;8.958;2023-08-24T18:30:46;99615.47;;;25.30;76.20
17230;BME280;8731;50.364;8.958;2023-08-24T18:35:09;99601.47;;;25.61;74.99
17230;BME280;8731;50.364;8.958;2023-08-24T18:39:32;99575.69;;;25.37;74.68
17230;BME280;8731;50.364;8.958;2023-08-24T18:43:55;99570.09;;;25.58;73.92
17230;BME280;8731;50.364;8.958;2023-08-24T18:48:18;99576.75;;;24.78;78.49
17230;BME280;8731;50.364;8.958;2023-08-24T18:52:40;99568.50;;;24.94;77.97
17230;BME280;8731;50.364;8.958;2023-08-24T18:57:02;99549.84;;;24.44;79.57
17230;BME280;8731;50.364;8.958;2023-08-24T19:01:26;99517.16;;;24.56;79.49
17230;BME280;8731;50.364;8.958;2023-08-24T19:05:50;99520.16;;;24.71;77.76
17230;BME280;8731;50.364;8.958;2023-08-24T19:10:13;99520.41;;;24.82;77.45
17230;BME280;8731;50.364;8.958;2023-08-24T19:14:35;99512.91;;;24.59;77.68
17230;BME280;8731;50.364;8.958;2023-08-24T19:18:59;99514.84;;;24.35;80.01
17230;BME280;8731;50.364;8.958;2023-08-24T19:23:21;99521.81;;;24.36;79.43
17230;BME280;8731;50.364;8.958;2023-08-24T19:27:44;99513.78;;;23.97;82.72
17230;BME280;8731;50.364;8.958;2023-08-24T19:32:06;99527.13;;;23.79;81.60
17230;BME280;8731;50.364;8.958;2023-08-24T19:36:30;99539.78;;;23.97;79.75
17230;BME280;8731;50.364;8.958;2023-08-24T19:40:52;99527.97;;;23.78;82.82
17230;BME280;8731;50.364;8.958;2023-08-24T19:45:15;99516.84;;;23.83;81.51
17230;BME280;8731;50.364;8.958;2023-08-24T19:49:39;99507.38;;;23.85;81.71
17230;BME280;8731;50.364;8.958;2023-08-24T19:54:03;99516.69;;;23.77;82.17
17230;BME280;8731;50.364;8.958;2023-08-24T19:58:25;99530.56;;;23.78;81.60
17230;BME280;8731;50.364;8.958;2023-08-24T20:02:48;99541.88;;;23.80;80.62
17230;BME280;8731;50.364;8.958;2023-08-24T20:07:11;99542.03;;;23.56;83.44
17230;BME280;8731;50.364;8.958;2023-08-24T20:11:34;99553.66;;;23.67;81.42
17230;BME280;8731;50.364;8.958;2023-08-24T20:16:02;99554.06;;;23.54;82.72
17230;BME280;8731;50.364;8.958;2023-08-24T20:20:25;99533.78;;;23.69;80.90
17230;BME280;8731;50.364;8.958;2023-08-24T20:24:48;99541.50;;;23.41;83.72
17230;BME280;8731;50.364;8.958;2023-08-24T20:29:11;99568.47;;;23.17;84.85
17230;BME280;8731;50.364;8.958;2023-08-24T20:33:34;99548.38;;;22.85;87.91
17230;BME280;8731;50.364;8.958;2023-08-24T20:37:56;99554.25;;;22.55;89.70
17230;BME280;8731;50.364;8.958;2023-08-24T20:42:20;99565.00;;;22.42;89.44
17230;BME280;8731;50.364;8.958;2023-08-24T20:46:45;99564.72;;;22.82;83.51
17230;BME280;8731;50.364;8.958;2023-08-24T20:51:07;99566.94;;;22.72;85.17
17230;BME280;8731;50.364;8.958;2023-08-24T20:55:29;99575.38;;;22.42;87.17
17230;BME280;8731;50.364;8.958;2023-08-24T20:59:52;99570.16;;;22.17;89.45
17230;BME280;8731;50.364;8.958;2023-08-24T21:04:16;99577.66;;;22.33;87.48
17230;BME280;8731;50.364;8.958;2023-08-24T21:08:38;99566.31;;;22.29;88.06
17230;BME280;8731;50.364;8.958;2023-08-24T21:13:01;99561.38;;;22.37;86.33
17230;BME280;8731;50.364;8.958;2023-08-24T21:17:24;99553.28;;;22.28;87.29
17230;BME280;8731;50.364;8.958;2023-08-24T21:21:48;99555.25;;;22.35;86.50
17230;BME280;8731;50.364;8.958;2023-08-24T21:26:10;99563.25;;;22.17;88.36
17230;BME280;8731;50.364;8.958;2023-08-24T21:30:33;99557.69;;;22.07;90.41
17230;BME280;8731;50.364;8.958;2023-08-24T21:34:55;99576.25;;;21.96;89.73
17230;BME280;8731;50.364;8.958;2023-08-24T21:39:19;99568.88;;;21.61;92.40
17230;BME280;8731;50.364;8.958;2023-08-24T21:43:41;99575.06;;;21.64;91.05
17230;BME280;8731;50.364;8.958;2023-08-24T21:48:05;99583.47;;;21.81;89.19
17230;BME280;8731;50.364;8.958;2023-08-24T21:52:27;99587.00;;;21.61;90.85
17230;BME280;8731;50.364;8.958;2023-08-24T21:56:51;99587.06;;;21.62;90.85
17230;BME280;8731;50.364;8.958;2023-08-24T22:01:13;99586.97;;;21.82;88.12
17230;BME280;8731;50.364;8.958;2023-08-24T22:05:37;99591.19;;;21.80;88.46
17230;BME280;8731;50.364;8.958;2023-08-24T22:09:59;99585.81;;;21.75;88.62
17230;BME280;8731;50.364;8.958;2023-08-24T22:14:23;99596.00;;;21.70;89.38
17230;BME280;8731;50.364;8.958;2023-08-24T22:18:46;99599.38;;;21.68;89.95
17230;BME280;8731;50.364;8.958;2023-08-24T22:23:08;99605.59;;;21.73;87.97
17230;BME280;8731;50.364;8.958;2023-08-24T22:27:31;99610.09;;;21.55;90.13
17230;BME280;8731;50.364;8.958;2023-08-24T22:31:56;99623.16;;;21.58;89.37
17230;BME280;8731;50.364;8.958;2023-08-24T22:36:19;99625.81;;;21.59;89.08
17230;BME280;8731;50.364;8.958;2023-08-24T22:40:41;99623.59;;;21.06;95.33
17230;BME280;8731;50.364;8.958;2023-08-24T22:45:05;99623.00;;;21.32;90.87
17230;BME280;8731;50.364;8.958;2023-08-24T22:49:29;99633.97;;;20.87;96.11
17230;BME280;8731;50.364;8.958;2023-08-24T22:53:51;99635.84;;;20.70;98.90
17230;BME280;8731;50.364;8.958;2023-08-24T22:58:14;99648.25;;;20.98;95.14
17230;BME280;8731;50.364;8.958;2023-08-24T23:02:36;99642.78;;;21.11;92.93
17230;BME280;8731;50.364;8.958;2023-08-24T23:07:04;99640.56;;;21.20;91.12
17230;BME280;8731;50.364;8.958;2023-08-24T23:11:27;99646.56;;;21.19;90.98
17230;BME280;8731;50.364;8.958;2023-08-24T23:15:49;99632.81;;;21.20;91.12
17230;BME280;8731;50.364;8.958;2023-08-24T23:20:15;99636.09;;;21.16;92.03
17230;BME280;8731;50.364;8.958;2023-08-24T23:24:38;99624.06;;;20.97;95.13
17230;BME280;8731;50.364;8.958;2023-08-24T23:29:01;99619.78;;;20.98;94.46